Cody, WY (82414)

4:54 PM MST on February 13, 2016 (GMT -0700)
Valley View | | Change Station
CLOSE
Current Station
Personal Weather Station
Location: Cody, WY
Elevation: 5166 ft
Nearby Weather Stations
Active Advisory: High Wind Warning Active Notice: Public Information Statement

Elev 5166 ft 44.51 °N, 109.10 °W | Updated 5 minutes ago

Clear
Clear
42.4 °F
Feels Like 37 °F
N
10.0
Wind Variable Wind from NW
Gusts 38.0 mph

Today
High -- | Low -- °F
--% Chance of Precip.
Yesterday
High -- | Low -- °F
Precip. -- in
Pressure 29.98 in
Visibility 10.0 miles
Clouds Clear
Windchill 37 °F
Dew Point 10 °F
Humidity 26%
Rainfall 0.00 in
Snow Depth Not available.
7:19 AM 5:41 PM
Waxing Crescent, 35% visible
METAR KCOD 132335Z AUTO 29017G31KT 10SM CLR 06/M11 A2998 RMK AO1
Pressure 29.98 in
Visibility 10.0 miles
Clouds Clear
Windchill 37 °F
Dew Point 10 °F
Humidity 26%
Rainfall 0.00 in
Snow Depth Not available.
7:19 AM 5:41 PM
Waxing Crescent, 35% visible
METAR KCOD 132335Z AUTO 29017G31KT 10SM CLR 06/M11 A2998 RMK AO1

10-Day Weather Forecast

Almanac

Astronomy

Feb. 13, 2016 Rise Set
Actual Time
Civil Twilight
Nautical Twilight
Astronomical Twilight
Moon
Length of Visible Light
Length of Day
Tomorrow will be .
, % of the Moon is Illuminated

Today's Extremes

State Highs State Lows

Community

WunderPhotos

Upload Photos

1,892,705 photos uploaded!

WunderBlog® & News

Nearby

Air Quality

  Air Quality AQ Index Pollutant
Not available.

Snow Depth

Station Depth Elevation

Earthquake Activity

City Distance Mag. Time & Date
Minimum magnitude displayed is 2.5.

Coastal Water Temperatures

Place Temperature

Stations

Nearby Weather Stations

Station Location Temp. Windchill Dew Point Humidity Wind Precip. Elev Updated Type
                   

Watches & Warnings

High Wind Warning
Issued: 1:13 PM MST Feb. 13, 2016 – National Weather Service

... High Wind Warning remains in effect until 6 PM MST this
evening...

* timing... high winds expected through 6 PM MST this evening.

* Winds... north to northwest winds 35 to 45 mph with gusts to 65
mph.

* Impacts... high cross winds may make travel difficult and
dangerous for high profile vehicles and drivers pulling light
trailers.

Precautionary/preparedness actions...

A High Wind Warning means a hazardous high wind event is expected
or occurring. Sustained wind speeds of at least 40 mph or gusts
of 58 mph or more can lead to property damage.